createdAt,value
2022-08-11T00:04:57.051Z,4.30
2022-08-11T00:07:26.737Z,3.97
2022-08-11T00:09:57.047Z,4.00
2022-08-11T00:12:25.367Z,4.00
2022-08-11T00:14:58.404Z,4.18
2022-08-11T00:17:29.836Z,4.40
2022-08-11T00:20:13.824Z,4.30
2022-08-11T00:22:46.633Z,4.20
2022-08-11T00:25:18.178Z,3.85
2022-08-11T00:27:47.982Z,3.97
2022-08-11T00:30:17.005Z,3.67
2022-08-11T00:32:47.208Z,3.78
2022-08-11T00:35:51.650Z,4.45
2022-08-11T00:38:08.403Z,3.83
2022-08-11T00:40:45.277Z,3.65
2022-08-11T00:43:24.867Z,3.50
2022-08-11T00:46:19.221Z,3.35
2022-08-11T00:48:58.991Z,3.20
2022-08-11T00:52:02.082Z,3.40
2022-08-11T00:55:10.105Z,3.30
2022-08-11T00:58:21.853Z,3.40
2022-08-11T01:01:10.343Z,3.22
2022-08-11T01:04:08.772Z,3.33
2022-08-11T01:06:55.228Z,3.40
2022-08-11T01:09:32.900Z,3.10
2022-08-11T01:12:22.909Z,3.10
2022-08-11T01:15:29.200Z,3.30
2022-08-11T01:18:46.176Z,3.20
2022-08-11T01:22:05.981Z,3.22
2022-08-11T01:25:09.374Z,3.70
2022-08-11T01:28:06.897Z,3.60
2022-08-11T01:31:15.929Z,3.63
2022-08-11T01:34:23.520Z,3.90
2022-08-11T01:37:07.828Z,3.50
2022-08-11T01:40:26.874Z,3.63
2022-08-11T01:43:49.670Z,3.55
2022-08-11T01:46:23.776Z,3.63
2022-08-11T01:50:06.778Z,3.50
2022-08-11T01:52:16.268Z,4.10
2022-08-11T01:54:49.193Z,3.85
2022-08-11T01:57:35.456Z,3.90
2022-08-11T02:00:09.956Z,3.90
2022-08-11T02:02:53.923Z,3.97
2022-08-11T02:05:30.303Z,3.72
2022-08-11T02:08:09.846Z,3.90
2022-08-11T02:11:04.694Z,4.00
2022-08-11T02:13:44.733Z,3.72
2022-08-11T02:16:20.819Z,3.55
2022-08-11T02:19:11.675Z,3.90
2022-08-11T02:22:04.233Z,3.80
2022-08-11T02:24:42.449Z,3.97
2022-08-11T02:27:17.314Z,4.07
2022-08-11T02:29:52.785Z,3.75
2022-08-11T02:32:42.458Z,3.88
2022-08-11T02:35:19.978Z,3.58
2022-08-11T02:37:59.228Z,3.63
2022-08-11T02:40:37.204Z,3.80
2022-08-11T02:43:19.953Z,3.58
2022-08-11T02:45:55.561Z,3.67
2022-08-11T02:48:52.317Z,3.65
2022-08-11T02:51:28.729Z,3.75
2022-08-11T02:54:08.396Z,3.58
2022-08-11T02:56:46.923Z,3.42
2022-08-11T02:59:43.766Z,3.70
2022-08-11T03:02:18.673Z,3.75
2022-08-11T03:04:56.452Z,3.80
2022-08-11T03:07:29.693Z,3.63
2022-08-11T03:10:10.965Z,3.85
2022-08-11T03:13:05.707Z,3.95
2022-08-11T03:16:01.176Z,4.10
2022-08-11T03:18:34.193Z,3.50
2022-08-11T03:21:10.241Z,4.00
2022-08-11T03:23:48.851Z,4.40
2022-08-11T03:26:24.213Z,4.22
2022-08-11T03:31:33.443Z,4.18
2022-08-11T03:34:07.239Z,3.90
2022-08-11T03:37:16.746Z,3.50
2022-08-11T03:39:56.568Z,3.70
2022-08-11T03:42:33.360Z,3.50
2022-08-11T03:45:16.560Z,3.55
2022-08-11T03:48:05.793Z,3.55
2022-08-11T03:50:55.159Z,3.67
2022-08-11T03:53:41.900Z,3.78
2022-08-11T03:56:54.255Z,3.90
2022-08-11T04:00:02.774Z,3.80
2022-08-11T04:03:31.398Z,3.85
2022-08-11T04:06:36.729Z,4.05
2022-08-11T04:09:40.411Z,3.92
2022-08-11T04:12:36.107Z,4.10
2022-08-11T04:16:11.363Z,4.30
2022-08-11T04:19:19.022Z,4.05
2022-08-11T04:22:20.498Z,3.95
2022-08-11T04:25:51.153Z,4.07
2022-08-11T04:28:56.749Z,3.85
2022-08-11T04:31:52.042Z,4.10
2022-08-11T04:34:46.209Z,3.88
2022-08-11T04:37:51.370Z,3.20
2022-08-11T04:40:57.334Z,3.88
2022-08-11T04:44:02.864Z,3.90
2022-08-11T04:47:12.026Z,3.63
2022-08-11T04:50:17.261Z,3.80
2022-08-11T04:53:44.871Z,3.80
2022-08-11T04:56:41.482Z,4.22
2022-08-11T04:59:59.373Z,4.18
2022-08-11T05:03:07.065Z,4.18
2022-08-11T05:06:03.780Z,4.28
2022-08-11T05:08:54.371Z,4.30
2022-08-11T05:12:02.278Z,4.30
2022-08-11T05:14:53.444Z,4.47
2022-08-11T05:17:55.548Z,4.40
2022-08-11T05:20:44.289Z,4.80
2022-08-11T05:23:47.694Z,4.03
2022-08-11T05:26:46.698Z,3.90
2022-08-11T05:29:47.309Z,3.80
2022-08-11T05:32:36.043Z,4.25
2022-08-11T05:35:07.431Z,4.18
2022-08-11T05:37:57.236Z,4.57
2022-08-11T05:40:51.143Z,4.22
2022-08-11T05:44:19.891Z,4.40
2022-08-11T05:46:47.056Z,4.10
2022-08-11T05:49:32.909Z,4.18
2022-08-11T05:52:19.365Z,4.20
2022-08-11T05:55:07.595Z,3.50
2022-08-11T05:57:50.166Z,3.50
2022-08-11T06:00:20.457Z,3.67
2022-08-11T06:02:55.298Z,3.40
2022-08-11T06:05:37.176Z,3.30
2022-08-11T06:08:13.909Z,3.10
2022-08-11T06:10:43.767Z,3.28
2022-08-11T06:13:18.069Z,3.20
2022-08-11T06:15:47.661Z,3.10
2022-08-11T06:18:16.498Z,3.42
2022-08-11T06:20:48.801Z,2.85
2022-08-11T06:23:20.415Z,2.85
2022-08-11T06:25:49.442Z,3.05
2022-08-11T06:28:22.572Z,2.92
2022-08-11T06:30:51.445Z,3.25
2022-08-11T06:33:30.612Z,3.33
2022-08-11T06:36:05.269Z,3.03
2022-08-11T06:38:47.922Z,2.95
2022-08-11T06:41:33.160Z,3.28
2022-08-11T06:44:16.260Z,3.00
2022-08-11T06:46:47.656Z,3.15
2022-08-11T06:49:34.828Z,2.75
2022-08-11T06:52:05.191Z,2.97
2022-08-11T06:54:37.168Z,2.92
2022-08-11T06:57:31.920Z,2.67
2022-08-11T07:00:29.103Z,2.60
2022-08-11T07:03:01.824Z,2.85
2022-08-11T07:05:43.790Z,2.60
2022-08-11T07:08:56.989Z,2.60
2022-08-11T07:12:18.037Z,2.58
2022-08-11T07:15:10.085Z,2.35
2022-08-11T07:17:49.829Z,2.72
2022-08-11T07:20:37.281Z,2.38
2022-08-11T07:23:28.170Z,2.70
2022-08-11T07:26:18.071Z,2.40
2022-08-11T07:28:59.219Z,2.63
2022-08-11T07:31:34.107Z,2.70
2022-08-11T07:34:17.934Z,2.63
2022-08-11T07:39:22.551Z,2.60
2022-08-11T07:41:54.267Z,2.40
2022-08-11T07:44:29.408Z,2.50
2022-08-11T07:47:18.833Z,2.80
2022-08-11T07:50:08.737Z,2.65
2022-08-11T07:52:40.498Z,2.80
2022-08-11T07:55:13.067Z,2.50
2022-08-11T07:58:16.678Z,2.25
2022-08-11T08:01:10.124Z,2.20
2022-08-11T08:03:58.172Z,2.13
2022-08-11T08:06:46.270Z,2.10
2022-08-11T08:09:35.497Z,2.25
2022-08-11T08:12:22.353Z,2.45
2022-08-11T08:15:08.440Z,2.30
2022-08-11T08:18:09.397Z,2.60
2022-08-11T08:20:49.726Z,2.30
2022-08-11T08:23:33.078Z,2.20
2022-08-11T08:28:32.593Z,2.50
2022-08-11T08:31:00.893Z,2.35
2022-08-11T08:33:31.399Z,2.30
2022-08-11T08:36:12.710Z,2.03
2022-08-11T08:38:44.250Z,2.28
2022-08-11T08:41:16.611Z,2.28
2022-08-11T08:43:49.783Z,2.05
2022-08-11T08:46:21.755Z,2.38
2022-08-11T08:48:52.143Z,2.00
2022-08-11T08:51:58.772Z,2.08
2022-08-11T08:54:31.642Z,2.10
2022-08-11T08:57:05.230Z,1.90
2022-08-11T08:59:47.617Z,1.98
2022-08-11T09:02:20.546Z,1.70
2022-08-11T09:05:03.713Z,1.90
2022-08-11T09:07:39.454Z,1.90
2022-08-11T09:10:11.878Z,1.95
2022-08-11T09:12:42.562Z,2.00
2022-08-11T09:15:12.925Z,1.92
2022-08-11T09:17:45.049Z,2.10
2022-08-11T09:20:18.530Z,1.80
2022-08-11T09:26:15.896Z,1.90
2022-08-11T09:28:45.168Z,1.80
2022-08-11T09:31:14.354Z,1.77
2022-08-11T09:33:43.855Z,1.85
2022-08-11T09:36:31.596Z,1.80
2022-08-11T09:39:18.545Z,1.80
2022-08-11T09:42:00.302Z,1.80
2022-08-11T09:44:48.924Z,1.80
2022-08-11T09:47:24.245Z,1.80
2022-08-11T09:49:54.759Z,1.60
2022-08-11T09:52:24.357Z,1.58
2022-08-11T09:54:53.473Z,1.38
2022-08-11T09:57:41.525Z,1.30
2022-08-11T10:00:13.438Z,1.70
2022-08-11T10:02:44.633Z,1.60
2022-08-11T10:05:29.884Z,1.52
2022-08-11T10:07:58.178Z,1.63
2022-08-11T10:10:26.649Z,1.80
2022-08-11T10:13:01.593Z,1.60
2022-08-11T10:15:39.873Z,1.75
2022-08-11T10:18:49.107Z,1.50
2022-08-11T10:21:28.153Z,1.67
2022-08-11T10:24:14.632Z,1.77
2022-08-11T10:27:00.020Z,1.88
2022-08-11T10:29:51.194Z,1.48
2022-08-11T10:32:58.101Z,1.60
2022-08-11T10:35:29.185Z,1.60
2022-08-11T10:38:05.848Z,1.70
2022-08-11T10:40:39.931Z,1.73
2022-08-11T10:43:13.375Z,1.67
2022-08-11T10:46:05.098Z,1.73
2022-08-11T10:48:40.161Z,1.60
2022-08-11T10:51:13.862Z,1.67
2022-08-11T10:54:01.947Z,1.70
2022-08-11T10:56:49.399Z,1.60
2022-08-11T10:59:18.199Z,1.70
2022-08-11T11:01:47.965Z,1.60
2022-08-11T11:04:18.014Z,1.70
2022-08-11T11:06:54.536Z,1.80
2022-08-11T11:09:29.866Z,1.80
2022-08-11T11:12:19.180Z,1.60
2022-08-11T11:15:06.979Z,1.42
2022-08-11T11:17:56.970Z,1.60
2022-08-11T11:20:35.791Z,1.35
2022-08-11T11:23:10.347Z,1.77
2022-08-11T11:26:07.384Z,1.52
2022-08-11T11:29:08.043Z,1.65
2022-08-11T11:31:50.254Z,1.67
2022-08-11T11:34:37.889Z,1.60
2022-08-11T11:37:21.961Z,1.70
2022-08-11T11:39:50.143Z,1.70
2022-08-11T11:42:19.661Z,1.75
2022-08-11T11:44:48.861Z,1.63
2022-08-11T11:47:18.194Z,1.77
2022-08-11T11:49:49.602Z,1.70
2022-08-11T11:52:20.156Z,1.55
2022-08-11T11:54:50.193Z,1.73
2022-08-11T11:57:37.177Z,1.67
2022-08-11T12:00:33.363Z,1.70
2022-08-11T12:03:05.047Z,1.60
2022-08-11T12:05:36.194Z,1.50
2022-08-11T12:08:14.417Z,1.67
2022-08-11T12:10:46.477Z,1.67
2022-08-11T12:13:33.997Z,1.70
2022-08-11T12:16:32.392Z,1.88
2022-08-11T12:18:54.051Z,1.85
2022-08-11T12:21:25.183Z,1.92
2022-08-11T12:24:10.930Z,1.55
2022-08-11T12:27:14.782Z,1.70
2022-08-11T12:29:43.936Z,1.70
2022-08-11T12:32:13.029Z,1.90
2022-08-11T12:34:41.212Z,1.73
2022-08-11T12:37:13.757Z,1.70
2022-08-11T12:40:16.729Z,1.70
2022-08-11T12:43:22.133Z,1.60
2022-08-11T12:45:58.727Z,1.70
2022-08-11T12:49:00.436Z,1.65
2022-08-11T12:52:10.933Z,1.50
2022-08-11T12:54:51.430Z,2.47
2022-08-11T12:57:44.237Z,1.52
2022-08-11T13:00:30.459Z,1.67
2022-08-11T13:03:17.292Z,1.83
2022-08-11T13:05:49.535Z,1.70
2022-08-11T13:08:18.872Z,1.77
2022-08-11T13:11:08.864Z,1.80
2022-08-11T13:13:54.542Z,1.83
2022-08-11T13:16:27.538Z,1.67
2022-08-11T13:18:56.481Z,1.67
2022-08-11T13:21:24.894Z,1.48
2022-08-11T13:23:59.853Z,1.95
2022-08-11T13:26:47.305Z,1.77
2022-08-11T13:29:20.236Z,1.60
2022-08-11T13:31:49.221Z,1.80
2022-08-11T13:34:17.832Z,1.80
2022-08-11T13:36:46.571Z,2.00
2022-08-11T13:39:15.313Z,1.75
2022-08-11T13:41:47.727Z,1.80
2022-08-11T13:44:24.760Z,2.00
2022-08-11T13:46:55.200Z,1.75
2022-08-11T13:49:24.306Z,1.52
2022-08-11T13:51:53.570Z,1.70
2022-08-11T13:54:24.851Z,1.77
2022-08-11T13:56:57.097Z,1.70
2022-08-11T13:59:30.850Z,1.92
2022-08-11T14:02:22.126Z,2.03
2022-08-11T14:04:58.398Z,1.95
2022-08-11T14:07:35.843Z,1.70
2022-08-11T14:10:05.460Z,1.90
2022-08-11T14:12:54.537Z,2.13
2022-08-11T14:15:25.035Z,1.83
2022-08-11T14:17:57.312Z,1.83
2022-08-11T14:20:45.456Z,1.85
2022-08-11T14:23:15.483Z,1.80
2022-08-11T14:26:04.719Z,1.77
2022-08-11T14:28:41.703Z,1.75
2022-08-11T14:31:14.135Z,1.80
2022-08-11T14:34:00.884Z,1.70
2022-08-11T14:36:35.547Z,2.20
2022-08-11T14:39:08.007Z,1.65
2022-08-11T14:42:07.515Z,1.77
2022-08-11T14:45:03.123Z,1.90
2022-08-11T14:47:33.892Z,1.80
2022-08-11T14:50:11.422Z,1.85
2022-08-11T14:52:45.778Z,2.00
2022-08-11T14:55:33.057Z,2.00
2022-08-11T14:58:02.808Z,1.98
2022-08-11T15:00:34.144Z,1.80
2022-08-11T15:03:12.432Z,2.03
2022-08-11T15:05:56.107Z,1.85
2022-08-11T15:08:47.845Z,1.80
2022-08-11T15:11:36.739Z,2.00
2022-08-11T15:14:07.108Z,2.10
2022-08-11T15:16:56.008Z,1.80
2022-08-11T15:19:36.761Z,2.10
2022-08-11T15:22:28.296Z,2.05
2022-08-11T15:24:58.207Z,2.10
2022-08-11T15:27:48.516Z,1.73
2022-08-11T15:30:35.518Z,2.13
2022-08-11T15:33:25.451Z,1.80
2022-08-11T15:36:13.009Z,2.00
2022-08-11T15:38:45.416Z,1.95
2022-08-11T15:41:35.895Z,1.80
2022-08-11T15:44:51.220Z,1.98
2022-08-11T15:47:16.590Z,1.83
2022-08-11T15:50:10.953Z,2.08
2022-08-11T15:52:44.788Z,2.00
2022-08-11T15:55:12.797Z,2.03
2022-08-11T15:58:00.382Z,2.20
2022-08-11T16:00:47.215Z,2.05
2022-08-11T16:04:06.465Z,2.20
2022-08-11T16:06:24.038Z,2.00
2022-08-11T16:08:56.361Z,2.40
2022-08-11T16:11:25.805Z,2.60
2022-08-11T16:14:12.058Z,2.38
2022-08-11T16:16:41.153Z,2.08
2022-08-11T16:19:10.888Z,2.22
2022-08-11T16:21:43.063Z,1.85
2022-08-11T16:27:03.404Z,1.92
2022-08-11T16:27:13.154Z,2.20
2022-08-11T16:29:45.700Z,2.05
2022-08-11T16:32:21.775Z,2.05
2022-08-11T16:35:14.314Z,2.35
2022-08-11T16:38:02.908Z,2.25
2022-08-11T16:40:33.547Z,1.90
2022-08-11T16:43:22.277Z,2.13
2022-08-11T16:46:08.172Z,2.10
2022-08-11T16:48:41.198Z,2.17
2022-08-11T16:51:12.198Z,2.33
2022-08-11T16:54:00.027Z,2.55
2022-08-11T16:56:36.389Z,2.10
2022-08-11T16:59:15.225Z,2.33
2022-08-11T17:01:45.847Z,2.35
2022-08-11T17:04:39.622Z,2.10
2022-08-11T17:07:41.623Z,2.45
2022-08-11T17:10:51.328Z,2.35
2022-08-11T17:13:27.180Z,2.33
2022-08-11T17:16:08.797Z,2.50
2022-08-11T17:18:44.123Z,2.05
2022-08-11T17:21:21.601Z,2.75
2022-08-11T17:23:54.953Z,2.30
2022-08-11T17:26:49.211Z,2.60
2022-08-11T17:29:19.674Z,2.58
2022-08-11T17:32:06.824Z,2.13
2022-08-11T17:34:52.934Z,2.15
2022-08-11T17:37:22.773Z,2.20
2022-08-11T17:39:52.857Z,2.35
2022-08-11T17:42:42.029Z,2.28
2022-08-11T17:45:29.836Z,2.20
2022-08-11T17:48:15.942Z,2.20
2022-08-11T17:50:44.712Z,2.17
2022-08-11T17:53:32.017Z,2.35
2022-08-11T17:56:29.989Z,2.30
2022-08-11T17:59:19.305Z,2.25
2022-08-11T18:01:49.811Z,2.28
2022-08-11T18:04:22.219Z,2.22
2022-08-11T18:06:51.660Z,2.88
2022-08-11T18:09:39.331Z,2.50
2022-08-11T18:18:59.731Z,2.53
2022-08-11T18:22:03.518Z,2.10
2022-08-11T18:24:58.047Z,2.30
2022-08-11T18:27:46.461Z,2.63
2022-08-11T18:30:32.146Z,2.88
2022-08-11T18:36:31.207Z,3.13
2022-08-11T18:39:18.310Z,4.35
2022-08-11T18:42:06.462Z,3.35
2022-08-11T18:44:55.114Z,3.30
2022-08-11T18:47:42.894Z,3.45
2022-08-11T18:50:38.476Z,3.38
2022-08-11T18:53:29.168Z,3.08
2022-08-11T18:56:16.809Z,3.58
2022-08-11T18:59:05.770Z,3.85
2022-08-11T19:01:53.551Z,4.32
2022-08-11T19:04:40.314Z,4.25
2022-08-11T19:07:27.755Z,3.60
2022-08-11T19:10:15.694Z,3.35
2022-08-11T19:13:03.681Z,3.60
2022-08-11T19:15:50.382Z,3.58
2022-08-11T19:18:39.298Z,3.83
2022-08-11T19:21:26.891Z,4.28
2022-08-11T19:24:17.298Z,4.68
2022-08-11T19:27:04.635Z,9.48
2022-08-11T19:30:07.991Z,3.72
2022-08-11T19:33:00.151Z,3.83
2022-08-11T19:35:47.295Z,3.80
2022-08-11T19:38:33.568Z,3.72
2022-08-11T19:41:56.866Z,3.47
2022-08-11T19:44:27.057Z,4.55
2022-08-11T19:47:13.461Z,4.65
2022-08-11T19:50:02.219Z,6.03
2022-08-11T19:52:49.373Z,5.95
2022-08-11T19:55:36.094Z,5.70
2022-08-11T19:58:23.233Z,5.38
2022-08-11T20:01:10.389Z,5.05
2022-08-11T20:03:55.590Z,4.72
2022-08-11T20:06:42.600Z,4.30
2022-08-11T20:10:05.181Z,4.50
2022-08-11T20:12:36.473Z,4.50
2022-08-11T20:15:24.439Z,3.88
2022-08-11T20:18:11.967Z,3.00
2022-08-11T20:20:58.595Z,3.25
2022-08-11T20:23:45.226Z,3.13
2022-08-11T20:26:31.706Z,2.67
2022-08-11T20:29:19.220Z,3.03
2022-08-11T20:32:06.598Z,2.72
2022-08-11T20:34:58.206Z,3.15
2022-08-11T20:37:50.212Z,3.03
2022-08-11T20:40:39.904Z,2.90
2022-08-11T20:44:07.019Z,3.08
2022-08-11T20:46:38.746Z,3.20
2022-08-11T20:49:40.921Z,3.20
2022-08-11T20:52:37.646Z,3.53
2022-08-11T20:55:26.052Z,3.45
2022-08-11T20:58:47.003Z,3.70
2022-08-11T21:01:41.220Z,3.25
2022-08-11T21:04:27.936Z,2.88
2022-08-11T21:07:18.586Z,3.05
2022-08-11T21:10:23.243Z,2.92
2022-08-11T21:13:18.018Z,3.15
2022-08-11T21:16:25.454Z,3.10
2022-08-11T21:19:19.133Z,3.03
2022-08-11T21:22:28.020Z,3.08
2022-08-11T21:25:17.676Z,2.95
2022-08-11T21:28:07.822Z,3.40
2022-08-11T21:30:57.443Z,3.38
2022-08-11T21:33:46.150Z,3.30
2022-08-11T21:36:33.311Z,3.30
2022-08-11T21:39:20.741Z,3.30
2022-08-11T21:42:13.105Z,3.30
2022-08-11T21:44:59.695Z,3.45
2022-08-11T21:47:45.805Z,3.67
2022-08-11T21:50:31.649Z,3.50
2022-08-11T21:53:18.892Z,3.60
2022-08-11T21:56:05.093Z,3.17
2022-08-11T21:58:53.207Z,3.25
2022-08-11T22:01:39.368Z,3.03
2022-08-11T22:04:25.497Z,3.40
2022-08-11T22:07:11.888Z,3.70
2022-08-11T22:09:57.256Z,3.95
2022-08-11T22:12:45.129Z,3.97
2022-08-11T22:15:32.510Z,4.18
2022-08-11T22:18:20.263Z,3.63
2022-08-11T22:21:06.517Z,3.78
2022-08-11T22:23:56.543Z,3.72
2022-08-11T22:26:42.726Z,3.53
2022-08-11T22:29:50.793Z,3.22
2022-08-11T22:32:39.995Z,3.53
2022-08-11T22:35:29.285Z,3.50
2022-08-11T22:38:16.193Z,3.42
2022-08-11T22:41:01.400Z,3.80
2022-08-11T22:43:46.579Z,3.72
2022-08-11T22:46:34.327Z,3.95
2022-08-11T22:49:22.045Z,3.88
2022-08-11T22:52:08.954Z,3.58
2022-08-11T22:54:55.884Z,3.70
2022-08-11T22:58:00.969Z,3.60
2022-08-11T23:00:46.976Z,3.50
2022-08-11T23:03:37.782Z,3.40
2022-08-11T23:06:26.244Z,4.07
2022-08-11T23:09:12.937Z,3.72
2022-08-11T23:12:06.782Z,3.72
2022-08-11T23:14:57.101Z,4.40
2022-08-11T23:17:43.966Z,4.38
2022-08-11T23:20:42.889Z,4.30
2022-08-11T23:23:38.037Z,4.47
2022-08-11T23:26:24.533Z,4.38
2022-08-11T23:29:12.069Z,4.95
2022-08-11T23:31:57.877Z,5.20
2022-08-11T23:35:04.702Z,5.20
2022-08-11T23:37:54.877Z,5.65
2022-08-11T23:40:42.146Z,5.15
2022-08-11T23:43:37.401Z,4.55
2022-08-11T23:46:24.389Z,4.47
2022-08-11T23:49:15.144Z,4.40
2022-08-11T23:52:01.155Z,4.70
2022-08-11T23:54:47.937Z,4.63
2022-08-11T23:57:35.304Z,4.78
